createdAt,value
2018-02-20T00:00:50.058Z,13.90
2018-02-20T00:01:50.052Z,13.90
2018-02-20T00:02:50.003Z,13.90
2018-02-20T00:03:50.069Z,11.60
2018-02-20T00:04:49.991Z,11.60
2018-02-20T00:05:49.963Z,11.60
2018-02-20T00:06:50.110Z,11.60
2018-02-20T00:07:49.951Z,11.60
2018-02-20T00:08:50.023Z,11.60
2018-02-20T00:09:50.072Z,11.60
2018-02-20T00:10:50.090Z,11.60
2018-02-20T00:11:50.012Z,11.60
2018-02-20T00:12:50.093Z,11.60
2018-02-20T00:13:49.987Z,12.60
2018-02-20T00:14:50.065Z,12.60
2018-02-20T00:15:50.005Z,12.60
2018-02-20T00:16:49.957Z,12.60
2018-02-20T00:17:49.951Z,12.60
2018-02-20T00:18:49.988Z,12.60
2018-02-20T00:19:49.990Z,12.60
2018-02-20T00:20:49.992Z,12.60
2018-02-20T00:21:49.990Z,12.60
2018-02-20T00:22:49.994Z,12.60
2018-02-20T00:23:50.038Z,11.40
2018-02-20T00:24:49.918Z,11.40
2018-02-20T00:25:49.929Z,11.40
2018-02-20T00:26:49.933Z,11.40
2018-02-20T00:27:50.053Z,11.40
2018-02-20T00:28:50.042Z,11.40
2018-02-20T00:29:50.023Z,11.40
2018-02-20T00:30:49.964Z,11.40
2018-02-20T00:31:50.006Z,11.40
2018-02-20T00:32:49.944Z,11.40
2018-02-20T00:33:50.065Z,12.40
2018-02-20T00:34:49.984Z,12.40
2018-02-20T00:35:50.065Z,12.40
2018-02-20T00:36:50.005Z,12.40
2018-02-20T00:37:50.101Z,12.40
2018-02-20T00:38:50.097Z,12.40
2018-02-20T00:39:49.991Z,12.40
2018-02-20T00:40:50.107Z,12.40
2018-02-20T00:41:50.070Z,12.40
2018-02-20T00:42:50.110Z,12.40
2018-02-20T00:43:50.087Z,13.00
2018-02-20T00:44:49.969Z,13.00
2018-02-20T00:45:50.081Z,13.00
2018-02-20T00:46:50.009Z,13.00
2018-02-20T00:47:50.088Z,13.00
2018-02-20T00:48:50.083Z,13.00
2018-02-20T00:49:50.024Z,13.00
2018-02-20T00:50:50.082Z,13.00
2018-02-20T00:51:49.973Z,13.00
2018-02-20T00:52:50.040Z,13.00
2018-02-20T00:53:49.982Z,15.10
2018-02-20T00:54:50.077Z,15.10
2018-02-20T00:55:50.114Z,15.10
2018-02-20T00:56:50.079Z,15.10
2018-02-20T00:57:49.995Z,15.10
2018-02-20T00:58:50.061Z,15.10
2018-02-20T00:59:50.080Z,15.10
2018-02-20T01:00:50.084Z,15.10
2018-02-20T01:01:50.006Z,15.10
2018-02-20T01:02:50.029Z,15.10
2018-02-20T01:03:50.102Z,14.30
2018-02-20T01:04:50.043Z,14.30
2018-02-20T01:05:50.096Z,14.30
2018-02-20T01:06:50.091Z,14.30
2018-02-20T01:07:50.091Z,14.30
2018-02-20T01:08:50.091Z,14.30
2018-02-20T01:09:50.018Z,14.30
2018-02-20T01:10:49.979Z,14.30
2018-02-20T01:11:50.108Z,14.30
2018-02-20T01:12:50.096Z,14.30
2018-02-20T01:13:50.100Z,13.10
2018-02-20T01:14:50.025Z,13.10
2018-02-20T01:15:50.023Z,13.10
2018-02-20T01:16:50.099Z,13.10
2018-02-20T01:17:50.060Z,13.10
2018-02-20T01:18:50.098Z,13.10
2018-02-20T01:19:50.026Z,13.10
2018-02-20T01:20:50.090Z,13.10
2018-02-20T01:21:50.027Z,13.10
2018-02-20T01:22:50.102Z,13.10
2018-02-20T01:23:50.184Z,12.50
2018-02-20T01:24:50.061Z,12.50
2018-02-20T01:25:50.063Z,12.50
2018-02-20T01:26:50.131Z,12.50
2018-02-20T01:27:50.064Z,12.50
2018-02-20T01:28:50.059Z,12.50
2018-02-20T01:29:50.005Z,12.50
2018-02-20T01:30:50.108Z,12.50
2018-02-20T01:31:50.127Z,12.50
2018-02-20T01:32:50.140Z,12.50
2018-02-20T01:33:50.139Z,12.50
2018-02-20T01:34:50.097Z,13.90
2018-02-20T01:35:50.028Z,13.90
2018-02-20T01:36:50.097Z,13.90
2018-02-20T01:37:50.094Z,13.90
2018-02-20T01:38:50.028Z,13.90
2018-02-20T01:39:50.099Z,13.90
2018-02-20T01:40:50.029Z,13.90
2018-02-20T01:41:50.184Z,13.90
2018-02-20T01:42:50.100Z,13.90
2018-02-20T01:43:50.025Z,13.90
2018-02-20T01:44:50.108Z,13.20
2018-02-20T01:45:50.039Z,13.20
2018-02-20T01:46:50.036Z,13.20
2018-02-20T01:47:50.102Z,13.20
2018-02-20T01:48:50.029Z,13.20
2018-02-20T01:49:50.103Z,13.20
2018-02-20T01:50:50.041Z,13.20
2018-02-20T01:51:50.105Z,13.20
2018-02-20T01:52:50.036Z,13.20
2018-02-20T01:53:50.111Z,13.20
2018-02-20T01:54:50.127Z,13.60
2018-02-20T01:55:50.113Z,13.60
2018-02-20T01:56:50.149Z,13.60
2018-02-20T01:57:50.022Z,13.60
2018-02-20T01:58:50.118Z,13.60
2018-02-20T01:59:50.084Z,13.60
2018-02-20T02:00:50.046Z,13.60
2018-02-20T02:01:50.128Z,13.60
2018-02-20T02:02:50.021Z,13.60
2018-02-20T02:03:50.045Z,13.60
2018-02-20T02:04:50.053Z,11.80
2018-02-20T02:05:50.056Z,11.80
2018-02-20T02:06:50.126Z,11.80
2018-02-20T02:07:50.127Z,11.80
2018-02-20T02:08:50.052Z,11.80
2018-02-20T02:09:50.144Z,11.80
2018-02-20T02:10:50.130Z,11.80
2018-02-20T02:11:50.056Z,11.80
2018-02-20T02:12:50.131Z,11.80
2018-02-20T02:13:50.060Z,11.80
2018-02-20T02:14:50.089Z,12.40
2018-02-20T02:15:50.193Z,12.40
2018-02-20T02:16:50.086Z,12.40
2018-02-20T02:17:50.098Z,12.40
2018-02-20T02:18:50.112Z,12.40
2018-02-20T02:19:50.168Z,12.40
2018-02-20T02:20:50.056Z,12.40
2018-02-20T02:21:50.169Z,12.40
2018-02-20T02:22:50.109Z,12.40
2018-02-20T02:23:50.057Z,12.40
2018-02-20T02:24:50.054Z,12.30
2018-02-20T02:25:50.061Z,12.30
2018-02-20T02:26:50.155Z,12.30
2018-02-20T02:27:50.173Z,12.30
2018-02-20T02:28:50.146Z,12.30
2018-02-20T02:29:50.196Z,12.30
2018-02-20T02:30:50.060Z,12.30
2018-02-20T02:31:50.150Z,12.30
2018-02-20T02:32:50.172Z,12.30
2018-02-20T02:33:50.138Z,12.30
2018-02-20T02:34:50.123Z,12.00
2018-02-20T02:35:50.062Z,12.00
2018-02-20T02:36:50.038Z,12.00
2018-02-20T02:37:50.081Z,12.00
2018-02-20T02:38:50.133Z,12.00
2018-02-20T02:39:50.067Z,12.00
2018-02-20T02:40:50.130Z,12.00
2018-02-20T02:41:50.066Z,12.00
2018-02-20T02:42:50.129Z,12.00
2018-02-20T02:43:50.014Z,12.00
2018-02-20T02:44:50.156Z,13.90
2018-02-20T02:45:50.108Z,13.90
2018-02-20T02:46:50.155Z,13.90
2018-02-20T02:47:50.152Z,13.90
2018-02-20T02:48:50.157Z,13.90
2018-02-20T02:49:50.158Z,13.90
2018-02-20T02:50:50.085Z,13.90
2018-02-20T02:51:50.159Z,13.90
2018-02-20T02:52:50.081Z,13.90
2018-02-20T02:53:50.084Z,13.90
2018-02-20T02:54:50.060Z,11.70
2018-02-20T02:55:50.212Z,11.70
2018-02-20T02:56:50.082Z,11.70
2018-02-20T02:57:50.122Z,11.70
2018-02-20T02:58:50.215Z,11.70
2018-02-20T02:59:50.161Z,11.70
2018-02-20T03:00:50.094Z,11.70
2018-02-20T03:01:50.153Z,11.70
2018-02-20T03:02:50.167Z,11.70
2018-02-20T03:03:50.154Z,11.70
2018-02-20T03:04:50.088Z,12.70
2018-02-20T03:05:50.087Z,12.70
2018-02-20T03:06:50.092Z,12.70
2018-02-20T03:07:50.093Z,12.70
2018-02-20T03:08:50.168Z,12.70
2018-02-20T03:09:50.050Z,12.70
2018-02-20T03:10:50.094Z,12.70
2018-02-20T03:11:50.167Z,12.70
2018-02-20T03:12:50.169Z,12.70
2018-02-20T03:13:50.206Z,12.70
2018-02-20T03:14:50.098Z,12.60
2018-02-20T03:15:50.165Z,12.60
2018-02-20T03:16:50.060Z,12.60
2018-02-20T03:17:50.103Z,12.60
2018-02-20T03:18:50.225Z,12.60
2018-02-20T03:19:50.096Z,12.60
2018-02-20T03:20:50.174Z,12.60
2018-02-20T03:21:50.097Z,12.60
2018-02-20T03:22:50.179Z,12.60
2018-02-20T03:23:50.105Z,12.60
2018-02-20T03:24:50.088Z,12.80
2018-02-20T03:25:50.096Z,12.80
2018-02-20T03:26:50.147Z,12.80
2018-02-20T03:27:50.171Z,12.80
2018-02-20T03:28:50.075Z,12.80
2018-02-20T03:29:50.110Z,12.80
2018-02-20T03:30:50.171Z,12.80
2018-02-20T03:31:50.146Z,12.80
2018-02-20T03:32:50.235Z,12.80
2018-02-20T03:33:50.186Z,12.80
2018-02-20T03:34:50.026Z,13.00
2018-02-20T03:35:50.116Z,13.00
2018-02-20T03:36:50.144Z,13.00
2018-02-20T03:37:50.149Z,13.00
2018-02-20T03:38:50.022Z,13.00
2018-02-20T03:39:50.059Z,13.00
2018-02-20T03:40:50.024Z,13.00
2018-02-20T03:41:50.137Z,13.00
2018-02-20T03:42:50.192Z,13.00
2018-02-20T03:43:50.153Z,13.00
2018-02-20T03:44:50.180Z,13.00
2018-02-20T03:45:50.108Z,13.00
2018-02-20T03:46:50.177Z,13.00
2018-02-20T03:47:50.110Z,13.00
2018-02-20T03:48:50.178Z,13.00
2018-02-20T03:49:50.108Z,13.00
2018-02-20T03:50:50.179Z,13.00
2018-02-20T03:51:50.115Z,13.00
2018-02-20T03:52:50.179Z,13.00
2018-02-20T03:53:50.112Z,13.00
2018-02-20T03:54:50.160Z,11.50
2018-02-20T03:55:50.164Z,11.50
2018-02-20T03:56:50.130Z,11.50
2018-02-20T03:57:50.108Z,11.50
2018-02-20T03:58:50.107Z,11.50
2018-02-20T03:59:50.157Z,11.50
2018-02-20T04:00:50.165Z,11.50
2018-02-20T04:01:50.154Z,11.50
2018-02-20T04:02:50.190Z,11.50
2018-02-20T04:03:50.164Z,11.50
2018-02-20T04:04:50.267Z,11.50
2018-02-20T04:05:50.135Z,11.50
2018-02-20T04:06:50.133Z,11.50
2018-02-20T04:07:50.168Z,11.50
2018-02-20T04:08:50.219Z,11.50
2018-02-20T04:09:50.168Z,11.50
2018-02-20T04:10:50.162Z,11.50
2018-02-20T04:11:50.220Z,11.50
2018-02-20T04:12:50.233Z,11.50
2018-02-20T04:13:50.198Z,11.50
2018-02-20T04:14:50.133Z,10.80
2018-02-20T04:15:50.131Z,10.80
2018-02-20T04:16:50.207Z,10.80
2018-02-20T04:17:50.208Z,10.80
2018-02-20T04:18:50.148Z,10.80
2018-02-20T04:19:50.210Z,10.80
2018-02-20T04:20:50.133Z,10.80
2018-02-20T04:21:50.225Z,10.80
2018-02-20T04:22:50.137Z,10.80
2018-02-20T04:23:50.209Z,10.80
2018-02-20T04:24:50.235Z,11.50
2018-02-20T04:25:50.170Z,11.50
2018-02-20T04:26:50.130Z,11.50
2018-02-20T04:27:50.176Z,11.50
2018-02-20T04:28:50.201Z,11.50
2018-02-20T04:29:50.205Z,11.50
2018-02-20T04:30:50.239Z,11.50
2018-02-20T04:31:50.146Z,11.50
2018-02-20T04:32:50.230Z,11.50
2018-02-20T04:33:50.233Z,11.50
2018-02-20T04:34:50.218Z,11.30
2018-02-20T04:35:50.216Z,11.30
2018-02-20T04:36:50.217Z,11.30
2018-02-20T04:37:50.218Z,11.30
2018-02-20T04:38:50.217Z,11.30
2018-02-20T04:39:50.221Z,11.30
2018-02-20T04:40:50.220Z,11.30
2018-02-20T04:41:50.221Z,11.30
2018-02-20T04:42:50.147Z,11.30
2018-02-20T04:43:50.283Z,11.30
2018-02-20T04:44:50.085Z,11.00
2018-02-20T04:45:50.224Z,11.00
2018-02-20T04:46:50.088Z,11.00
2018-02-20T04:47:50.167Z,11.00
2018-02-20T04:48:50.097Z,11.00
2018-02-20T04:49:50.034Z,11.00
2018-02-20T04:50:50.150Z,11.00
2018-02-20T04:51:50.036Z,11.00
2018-02-20T04:52:50.153Z,11.00
2018-02-20T04:53:50.099Z,11.00
2018-02-20T04:54:50.191Z,11.80
2018-02-20T04:55:50.223Z,11.80
2018-02-20T04:56:50.229Z,11.80
2018-02-20T04:57:50.259Z,11.80
2018-02-20T04:58:50.253Z,11.80
2018-02-20T04:59:50.150Z,11.80
2018-02-20T05:00:50.258Z,11.80
2018-02-20T05:01:50.242Z,11.80
2018-02-20T05:02:50.252Z,11.80
2018-02-20T05:03:50.225Z,11.80
2018-02-20T05:04:50.220Z,10.90
2018-02-20T05:05:50.230Z,10.90
2018-02-20T05:06:50.180Z,10.90
2018-02-20T05:07:50.239Z,10.90
2018-02-20T05:08:50.164Z,10.90
2018-02-20T05:09:50.184Z,10.90
2018-02-20T05:10:50.163Z,10.90
2018-02-20T05:11:50.240Z,10.90
2018-02-20T05:12:50.269Z,10.90
2018-02-20T05:13:50.168Z,10.90
2018-02-20T05:14:50.289Z,10.90
2018-02-20T05:15:50.206Z,10.90
2018-02-20T05:16:50.208Z,10.90
2018-02-20T05:17:50.167Z,10.90
2018-02-20T05:18:50.193Z,10.90
2018-02-20T05:19:50.237Z,10.90
2018-02-20T05:20:50.296Z,10.90
2018-02-20T05:21:50.177Z,10.90
2018-02-20T05:22:50.179Z,10.90
2018-02-20T05:23:50.277Z,10.90
2018-02-20T05:24:50.178Z,11.80
2018-02-20T05:25:50.262Z,11.80
2018-02-20T05:26:50.166Z,11.80
2018-02-20T05:27:50.188Z,11.80
2018-02-20T05:28:50.207Z,11.80
2018-02-20T05:29:50.273Z,11.80
2018-02-20T05:30:50.244Z,11.80
2018-02-20T05:31:50.206Z,11.80
2018-02-20T05:32:50.175Z,11.80
2018-02-20T05:33:50.247Z,11.80
2018-02-20T05:34:50.168Z,10.60
2018-02-20T05:35:50.187Z,10.60
2018-02-20T05:36:50.307Z,10.60
2018-02-20T05:37:50.258Z,10.60
2018-02-20T05:38:50.249Z,10.60
2018-02-20T05:39:50.189Z,10.60
2018-02-20T05:40:50.283Z,10.60
2018-02-20T05:41:50.249Z,10.60
2018-02-20T05:42:50.265Z,10.60
2018-02-20T05:43:50.257Z,10.60
2018-02-20T05:44:50.249Z,13.50
2018-02-20T05:45:50.182Z,13.50
2018-02-20T05:46:50.248Z,13.50
2018-02-20T05:47:50.178Z,13.50
2018-02-20T05:48:50.250Z,13.50
2018-02-20T05:49:50.249Z,13.50
2018-02-20T05:50:50.178Z,13.50
2018-02-20T05:51:50.249Z,13.50
2018-02-20T05:52:50.189Z,13.50
2018-02-20T05:53:50.259Z,13.50
2018-02-20T05:54:50.237Z,11.90
2018-02-20T05:55:50.175Z,11.90
2018-02-20T05:56:50.287Z,11.90
2018-02-20T05:57:50.249Z,11.90
2018-02-20T05:58:50.237Z,11.90
2018-02-20T05:59:50.201Z,11.90
2018-02-20T06:00:50.167Z,11.90
2018-02-20T06:01:50.187Z,11.90
2018-02-20T06:02:50.261Z,11.90
2018-02-20T06:03:50.273Z,11.90
2018-02-20T06:04:50.256Z,10.30
2018-02-20T06:05:50.252Z,10.30
2018-02-20T06:06:50.258Z,10.30
2018-02-20T06:07:50.143Z,10.30
2018-02-20T06:08:50.168Z,10.30
2018-02-20T06:09:50.258Z,10.30
2018-02-20T06:10:50.161Z,10.30
2018-02-20T06:11:50.246Z,10.30
2018-02-20T06:12:50.169Z,10.30
2018-02-20T06:13:50.235Z,10.30
2018-02-20T06:14:50.275Z,10.90
2018-02-20T06:15:50.204Z,10.90
2018-02-20T06:16:50.340Z,10.90
2018-02-20T06:17:50.287Z,10.90
2018-02-20T06:18:50.278Z,10.90
2018-02-20T06:19:50.205Z,10.90
2018-02-20T06:20:50.284Z,10.90
2018-02-20T06:21:50.222Z,10.90
2018-02-20T06:22:50.210Z,10.90
2018-02-20T06:23:50.283Z,10.90
2018-02-20T06:24:50.248Z,12.50
2018-02-20T06:25:50.224Z,12.50
2018-02-20T06:26:50.281Z,12.50
2018-02-20T06:27:50.211Z,12.50
2018-02-20T06:28:50.210Z,12.50
2018-02-20T06:29:50.289Z,12.50
2018-02-20T06:30:50.211Z,12.50
2018-02-20T06:31:50.228Z,12.50
2018-02-20T06:32:50.289Z,12.50
2018-02-20T06:33:50.229Z,12.50
2018-02-20T06:34:50.290Z,11.30
2018-02-20T06:35:50.242Z,11.30
2018-02-20T06:36:50.217Z,11.30
2018-02-20T06:37:50.291Z,11.30
2018-02-20T06:38:50.229Z,11.30
2018-02-20T06:39:50.282Z,11.30
2018-02-20T06:40:50.218Z,11.30
2018-02-20T06:41:50.295Z,11.30
2018-02-20T06:42:50.219Z,11.30
2018-02-20T06:43:50.295Z,11.30
2018-02-20T06:44:50.330Z,11.50
2018-02-20T06:45:50.205Z,11.50
2018-02-20T06:46:50.349Z,11.50
2018-02-20T06:47:50.259Z,11.50
2018-02-20T06:48:50.289Z,11.50
2018-02-20T06:49:50.287Z,11.50
2018-02-20T06:50:50.335Z,11.50
2018-02-20T06:51:50.292Z,11.50
2018-02-20T06:52:50.264Z,11.50
2018-02-20T06:53:50.216Z,11.50
2018-02-20T06:54:50.201Z,11.30
2018-02-20T06:55:50.303Z,11.30
2018-02-20T06:56:50.202Z,11.30
2018-02-20T06:57:50.269Z,11.30
2018-02-20T06:58:50.299Z,11.30
2018-02-20T06:59:50.216Z,11.30
2018-02-20T07:00:50.205Z,11.30
2018-02-20T07:01:50.240Z,11.30
2018-02-20T07:02:50.291Z,11.30
2018-02-20T07:03:50.310Z,11.30
2018-02-20T07:04:50.204Z,13.30
2018-02-20T07:05:50.294Z,13.30
2018-02-20T07:06:50.294Z,13.30
2018-02-20T07:07:50.297Z,13.30
2018-02-20T07:08:50.290Z,13.30
2018-02-20T07:09:50.218Z,13.30
2018-02-20T07:10:50.293Z,13.30
2018-02-20T07:11:50.300Z,13.30
2018-02-20T07:12:50.266Z,13.30
2018-02-20T07:13:50.177Z,13.30
2018-02-20T07:14:50.298Z,15.99
2018-02-20T07:15:50.244Z,15.99
2018-02-20T07:16:50.303Z,15.99
2018-02-20T07:17:50.294Z,15.99
2018-02-20T07:18:50.224Z,15.99
2018-02-20T07:19:50.322Z,15.99
2018-02-20T07:20:50.234Z,15.99
2018-02-20T07:21:50.311Z,15.99
2018-02-20T07:22:50.179Z,15.99
2018-02-20T07:23:50.306Z,15.99
2018-02-20T07:24:50.311Z,14.50
2018-02-20T07:25:50.218Z,14.50
2018-02-20T07:26:50.285Z,14.50
2018-02-20T07:27:50.343Z,14.50
2018-02-20T07:28:50.221Z,14.50
2018-02-20T07:29:50.315Z,14.50
2018-02-20T07:30:50.222Z,14.50
2018-02-20T07:31:50.353Z,14.50
2018-02-20T07:32:50.343Z,14.50
2018-02-20T07:33:50.343Z,14.50
2018-02-20T07:34:50.298Z,13.50
2018-02-20T07:35:50.316Z,13.50
2018-02-20T07:36:50.289Z,13.50
2018-02-20T07:37:50.296Z,13.50
2018-02-20T07:38:50.226Z,13.50
2018-02-20T07:39:50.291Z,13.50
2018-02-20T07:40:50.303Z,13.50
2018-02-20T07:41:50.349Z,13.50
2018-02-20T07:42:50.362Z,13.50
2018-02-20T07:43:50.317Z,13.50
2018-02-20T07:44:50.299Z,13.50
2018-02-20T07:45:50.261Z,14.90
2018-02-20T07:46:50.329Z,14.90
2018-02-20T07:47:50.260Z,14.90
2018-02-20T07:48:50.329Z,14.90
2018-02-20T07:49:50.256Z,14.90
2018-02-20T07:50:50.291Z,14.90
2018-02-20T07:51:50.257Z,14.90
2018-02-20T07:52:50.331Z,14.90
2018-02-20T07:53:50.268Z,14.90
2018-02-20T07:54:50.334Z,14.90
2018-02-20T07:55:50.267Z,13.00
2018-02-20T07:56:50.199Z,13.00
2018-02-20T07:57:50.200Z,13.00
2018-02-20T07:58:50.292Z,13.00
2018-02-20T07:59:50.327Z,13.00
2018-02-20T08:00:50.257Z,13.00
2018-02-20T08:01:50.259Z,13.00
2018-02-20T08:02:50.206Z,13.00
2018-02-20T08:03:50.329Z,13.00
2018-02-20T08:04:50.334Z,13.00
2018-02-20T08:05:50.269Z,14.60
2018-02-20T08:06:50.337Z,14.60
2018-02-20T08:07:50.270Z,14.60
2018-02-20T08:08:50.269Z,14.60
2018-02-20T08:09:50.310Z,14.60
2018-02-20T08:10:50.374Z,14.60
2018-02-20T08:11:50.273Z,14.60
2018-02-20T08:12:50.343Z,14.60
2018-02-20T08:13:50.273Z,14.60
2018-02-20T08:14:50.348Z,14.60
2018-02-20T08:15:50.314Z,12.90
2018-02-20T08:16:50.247Z,12.90
2018-02-20T08:17:50.286Z,12.90
2018-02-20T08:18:50.344Z,12.90
2018-02-20T08:19:50.447Z,12.90
2018-02-20T08:20:50.384Z,12.90
2018-02-20T08:21:50.264Z,12.90
2018-02-20T08:22:50.321Z,12.90
2018-02-20T08:23:50.345Z,12.90
2018-02-20T08:24:50.373Z,12.90
2018-02-20T08:25:50.352Z,12.60
2018-02-20T08:26:50.430Z,12.60
2018-02-20T08:27:50.407Z,12.60
2018-02-20T08:28:50.331Z,12.60
2018-02-20T08:29:50.381Z,12.60
2018-02-20T08:30:50.250Z,12.60
2018-02-20T08:31:50.350Z,12.60
2018-02-20T08:32:50.352Z,12.60
2018-02-20T08:33:50.259Z,12.60
2018-02-20T08:34:50.551Z,12.60
2018-02-20T08:35:50.355Z,14.90
2018-02-20T08:36:50.330Z,14.90
2018-02-20T08:37:50.322Z,14.90
2018-02-20T08:38:50.323Z,14.90
2018-02-20T08:39:50.330Z,14.90
2018-02-20T08:40:50.274Z,14.90
2018-02-20T08:41:50.409Z,14.90
2018-02-20T08:42:50.380Z,14.90
2018-02-20T08:43:50.365Z,14.90
2018-02-20T08:44:50.367Z,14.90
2018-02-20T08:45:50.364Z,16.60
2018-02-20T08:46:50.295Z,16.60
2018-02-20T08:47:50.396Z,16.60
2018-02-20T08:48:50.392Z,16.60
2018-02-20T08:49:50.337Z,16.60
2018-02-20T08:50:50.397Z,16.60
2018-02-20T08:51:50.337Z,16.60
2018-02-20T08:52:50.385Z,16.60
2018-02-20T08:53:50.370Z,16.60
2018-02-20T08:54:50.341Z,16.60
2018-02-20T08:55:50.306Z,17.00
2018-02-20T08:56:50.270Z,17.00
2018-02-20T08:57:50.252Z,17.00
2018-02-20T08:58:50.359Z,17.00
2018-02-20T08:59:50.234Z,17.00
2018-02-20T09:00:50.308Z,17.00
2018-02-20T09:01:50.368Z,17.00
2018-02-20T09:02:50.257Z,17.00
2018-02-20T09:03:50.291Z,17.00
2018-02-20T09:04:50.325Z,17.00
2018-02-20T09:05:50.292Z,16.10
2018-02-20T09:06:50.292Z,16.10
2018-02-20T09:07:50.355Z,16.10
2018-02-20T09:08:50.312Z,16.10
2018-02-20T09:09:50.279Z,16.10
2018-02-20T09:10:50.374Z,16.10
2018-02-20T09:11:50.411Z,16.10
2018-02-20T09:12:50.314Z,16.10
2018-02-20T09:13:50.406Z,16.10
2018-02-20T09:14:50.340Z,16.10
2018-02-20T09:15:50.296Z,17.30
2018-02-20T09:16:50.302Z,17.30
2018-02-20T09:17:50.273Z,17.30
2018-02-20T09:18:50.305Z,17.30
2018-02-20T09:19:50.303Z,17.30
2018-02-20T09:20:50.321Z,17.30
2018-02-20T09:21:50.329Z,17.30
2018-02-20T09:22:50.340Z,17.30
2018-02-20T09:23:50.264Z,17.30
2018-02-20T09:24:50.308Z,17.30
2018-02-20T09:25:50.350Z,17.60
2018-02-20T09:26:50.325Z,17.60
2018-02-20T09:27:50.384Z,17.60
2018-02-20T09:28:50.463Z,17.60
2018-02-20T09:29:50.414Z,17.60
2018-02-20T09:30:50.385Z,17.60
2018-02-20T09:31:50.348Z,17.60
2018-02-20T09:32:50.428Z,17.60
2018-02-20T09:33:50.289Z,17.60
2018-02-20T09:34:50.367Z,17.60
2018-02-20T09:35:50.390Z,19.90
2018-02-20T09:36:50.366Z,19.90
2018-02-20T09:37:50.388Z,19.90
2018-02-20T09:38:50.394Z,19.90
2018-02-20T09:39:50.398Z,19.90
2018-02-20T09:40:50.371Z,19.90
2018-02-20T09:41:50.417Z,19.90
2018-02-20T09:42:50.402Z,19.90
2018-02-20T09:43:50.374Z,19.90
2018-02-20T09:44:50.336Z,19.90
2018-02-20T09:45:50.395Z,18.50
2018-02-20T09:46:50.421Z,18.50
2018-02-20T09:47:50.431Z,18.50
2018-02-20T09:48:50.367Z,18.50
2018-02-20T09:49:50.427Z,18.50
2018-02-20T09:50:50.394Z,18.50
2018-02-20T09:51:50.302Z,18.50
2018-02-20T09:52:50.306Z,18.50
2018-02-20T09:53:50.375Z,18.50
2018-02-20T09:54:50.443Z,18.50
2018-02-20T09:55:50.402Z,19.70
2018-02-20T09:56:50.388Z,19.70
2018-02-20T09:57:50.406Z,19.70
2018-02-20T09:58:50.379Z,19.70
2018-02-20T09:59:50.513Z,19.70
2018-02-20T10:00:50.321Z,19.70
2018-02-20T10:01:50.309Z,19.70
2018-02-20T10:02:50.378Z,19.70
2018-02-20T10:03:50.306Z,19.70
2018-02-20T10:04:50.411Z,19.70
2018-02-20T10:05:50.346Z,17.20
2018-02-20T10:06:50.411Z,17.20
2018-02-20T10:07:50.346Z,17.20
2018-02-20T10:08:50.345Z,17.20
2018-02-20T10:09:50.411Z,17.20
2018-02-20T10:10:50.385Z,17.20
2018-02-20T10:11:50.425Z,17.20
2018-02-20T10:12:50.349Z,17.20
2018-02-20T10:13:50.415Z,17.20
2018-02-20T10:14:50.346Z,17.20
2018-02-20T10:15:50.317Z,20.30
2018-02-20T10:16:50.439Z,20.30
2018-02-20T10:17:50.372Z,20.30
2018-02-20T10:18:50.422Z,20.30
2018-02-20T10:19:50.424Z,20.30
2018-02-20T10:20:50.438Z,20.30
2018-02-20T10:21:50.395Z,20.30
2018-02-20T10:22:50.453Z,20.30
2018-02-20T10:23:50.447Z,20.30
2018-02-20T10:24:50.419Z,20.30
2018-02-20T10:25:50.345Z,19.80
2018-02-20T10:26:50.420Z,19.80
2018-02-20T10:27:50.361Z,19.80
2018-02-20T10:28:50.450Z,19.80
2018-02-20T10:29:50.401Z,19.80
2018-02-20T10:30:50.330Z,19.80
2018-02-20T10:31:50.341Z,19.80
2018-02-20T10:32:50.370Z,19.80
2018-02-20T10:33:50.362Z,19.80
2018-02-20T10:34:50.337Z,19.80
2018-02-20T10:35:50.411Z,20.00
2018-02-20T10:36:50.370Z,20.00
2018-02-20T10:37:50.383Z,20.00
2018-02-20T10:38:50.431Z,20.00
2018-02-20T10:39:50.335Z,20.00
2018-02-20T10:40:50.415Z,20.00
2018-02-20T10:41:50.377Z,20.00
2018-02-20T10:42:50.387Z,20.00
2018-02-20T10:43:50.354Z,20.00
2018-02-20T10:44:50.338Z,20.00
2018-02-20T10:45:50.481Z,21.60
2018-02-20T10:46:50.467Z,21.60
2018-02-20T10:47:50.397Z,21.60
2018-02-20T10:48:50.460Z,21.60
2018-02-20T10:49:50.412Z,21.60
2018-02-20T10:50:50.434Z,21.60
2018-02-20T10:51:50.375Z,21.60
2018-02-20T10:52:50.440Z,21.60
2018-02-20T10:53:50.405Z,21.60
2018-02-20T10:54:50.402Z,21.60
2018-02-20T10:55:50.378Z,18.60
2018-02-20T10:56:50.372Z,18.60
2018-02-20T10:57:50.442Z,18.60
2018-02-20T10:58:50.376Z,18.60
2018-02-20T10:59:50.440Z,18.60
2018-02-20T11:00:50.379Z,18.60
2018-02-20T11:01:50.376Z,18.60
2018-02-20T11:02:50.378Z,18.60
2018-02-20T11:03:50.443Z,18.60
2018-02-20T11:04:50.378Z,18.60
2018-02-20T11:05:50.435Z,17.90
2018-02-20T11:06:50.330Z,17.90
2018-02-20T11:07:50.369Z,17.90
2018-02-20T11:08:50.316Z,17.90
2018-02-20T11:09:50.338Z,17.90
2018-02-20T11:10:50.442Z,17.90
2018-02-20T11:11:50.375Z,17.90
2018-02-20T11:12:50.404Z,17.90
2018-02-20T11:13:50.318Z,17.90
2018-02-20T11:14:50.590Z,17.90
2018-02-20T11:15:50.430Z,17.60
2018-02-20T11:16:51.896Z,17.60
2018-02-20T11:17:50.452Z,17.60
2018-02-20T11:18:50.456Z,17.60
2018-02-20T11:19:50.360Z,17.60
2018-02-20T11:20:50.462Z,17.60
2018-02-20T11:21:50.434Z,17.60
2018-02-20T11:22:50.486Z,17.60
2018-02-20T11:23:50.477Z,17.60
2018-02-20T11:24:50.379Z,17.60
2018-02-20T11:25:50.461Z,16.70
2018-02-20T11:26:50.390Z,16.70
2018-02-20T11:27:50.463Z,16.70
2018-02-20T11:28:50.394Z,16.70
2018-02-20T11:29:50.463Z,16.70
2018-02-20T11:30:50.394Z,16.70
2018-02-20T11:31:50.391Z,16.70
2018-02-20T11:32:50.468Z,16.70
2018-02-20T11:33:50.392Z,16.70
2018-02-20T11:34:50.395Z,16.70
2018-02-20T11:35:50.397Z,16.90
2018-02-20T11:36:50.397Z,16.90
2018-02-20T11:37:50.468Z,16.90
2018-02-20T11:38:50.399Z,16.90
2018-02-20T11:39:50.475Z,16.90
2018-02-20T11:40:50.475Z,16.90
2018-02-20T11:41:50.399Z,16.90
2018-02-20T11:42:50.470Z,16.90
2018-02-20T11:43:50.441Z,16.90
2018-02-20T11:44:50.396Z,16.90
2018-02-20T11:45:50.468Z,14.20
2018-02-20T11:46:50.508Z,14.20
2018-02-20T11:47:50.510Z,14.20
2018-02-20T11:48:50.469Z,14.20
2018-02-20T11:49:50.392Z,14.20
2018-02-20T11:50:50.507Z,14.20
2018-02-20T11:51:50.446Z,14.20
2018-02-20T11:52:50.504Z,14.20
2018-02-20T11:53:50.474Z,14.20
2018-02-20T11:54:50.516Z,14.20
2018-02-20T11:55:50.415Z,15.80
2018-02-20T11:56:50.435Z,15.80
2018-02-20T11:57:50.480Z,15.80
2018-02-20T11:58:50.379Z,15.80
2018-02-20T11:59:50.486Z,15.80
2018-02-20T12:00:50.505Z,15.80
2018-02-20T12:01:50.495Z,15.80
2018-02-20T12:02:50.522Z,15.80
2018-02-20T12:03:50.451Z,15.80
2018-02-20T12:04:50.417Z,15.80
2018-02-20T12:05:50.416Z,13.40
2018-02-20T12:06:50.413Z,13.40
2018-02-20T12:07:50.496Z,13.40
2018-02-20T12:08:50.413Z,13.40
2018-02-20T12:09:50.485Z,13.40
2018-02-20T12:10:50.419Z,13.40
2018-02-20T12:11:50.428Z,13.40
2018-02-20T12:12:50.492Z,13.40
2018-02-20T12:13:50.417Z,13.40
2018-02-20T12:14:50.419Z,13.40
2018-02-20T12:15:50.468Z,13.00
2018-02-20T12:16:50.440Z,13.00
2018-02-20T12:17:50.462Z,13.00
2018-02-20T12:18:50.439Z,13.00
2018-02-20T12:19:50.480Z,13.00
2018-02-20T12:20:50.389Z,13.00
2018-02-20T12:21:50.361Z,13.00
2018-02-20T12:22:50.386Z,13.00
2018-02-20T12:23:50.471Z,13.00
2018-02-20T12:24:50.470Z,13.00
2018-02-20T12:25:50.393Z,13.10
2018-02-20T12:26:50.397Z,13.10
2018-02-20T12:27:50.496Z,13.10
2018-02-20T12:28:50.495Z,13.10
2018-02-20T12:29:50.398Z,13.10
2018-02-20T12:30:50.517Z,13.10
2018-02-20T12:31:50.496Z,13.10
2018-02-20T12:32:50.457Z,13.10
2018-02-20T12:33:50.491Z,13.10
2018-02-20T12:34:50.495Z,13.10
2018-02-20T12:35:50.551Z,12.70
2018-02-20T12:36:50.430Z,12.70
2018-02-20T12:37:50.505Z,12.70
2018-02-20T12:38:50.433Z,12.70
2018-02-20T12:39:50.503Z,12.70
2018-02-20T12:40:50.517Z,12.70
2018-02-20T12:41:50.440Z,12.70
2018-02-20T12:42:50.544Z,12.70
2018-02-20T12:43:50.434Z,12.70
2018-02-20T12:44:50.434Z,12.70
2018-02-20T12:45:50.486Z,12.80
2018-02-20T12:46:50.539Z,12.80
2018-02-20T12:47:50.430Z,12.80
2018-02-20T12:48:50.514Z,12.80
2018-02-20T12:49:50.508Z,12.80
2018-02-20T12:50:50.513Z,12.80
2018-02-20T12:51:50.511Z,12.80
2018-02-20T12:52:50.477Z,12.80